createdAt,value
2022-12-11T00:00:18.361Z,97564.15
2022-12-11T00:03:15.380Z,97564.94
2022-12-11T00:05:48.106Z,97574.23
2022-12-11T00:08:19.653Z,97571.14
2022-12-11T00:10:52.308Z,97571.74
2022-12-11T00:13:23.827Z,97568.76
2022-12-11T00:15:55.414Z,97563.42
2022-12-11T00:18:26.911Z,97557.10
2022-12-11T00:21:01.432Z,97555.30
2022-12-11T00:23:33.531Z,97550.80
2022-12-11T00:26:08.060Z,97550.67
2022-12-11T00:28:39.616Z,97543.42
2022-12-11T00:31:14.103Z,97540.74
2022-12-11T00:33:48.980Z,97537.20
2022-12-11T00:36:23.303Z,97534.50
2022-12-11T00:38:55.569Z,97536.63
2022-12-11T00:41:27.126Z,97539.39
2022-12-11T00:43:58.908Z,97540.95
2022-12-11T00:46:30.568Z,97535.23
2022-12-11T00:49:02.090Z,97536.40
2022-12-11T00:51:33.791Z,97529.64
2022-12-11T00:54:06.274Z,97533.33
2022-12-11T00:56:37.819Z,97538.30
2022-12-11T00:59:09.569Z,97533.71
2022-12-11T01:01:41.142Z,97534.19
2022-12-11T01:04:12.755Z,97536.17
2022-12-11T01:06:44.252Z,97536.39
2022-12-11T01:09:33.389Z,97539.06
2022-12-11T01:12:05.290Z,97540.36
2022-12-11T01:14:36.922Z,97535.42
2022-12-11T01:17:08.539Z,97533.80
2022-12-11T01:19:40.155Z,97533.13
2022-12-11T01:22:11.712Z,97533.55
2022-12-11T01:24:43.452Z,97534.19
2022-12-11T01:27:15.316Z,97527.75
2022-12-11T01:29:46.784Z,97527.09
2022-12-11T01:32:18.431Z,97524.46
2022-12-11T01:34:49.912Z,97524.05
2022-12-11T01:37:22.235Z,97523.71
2022-12-11T01:39:53.937Z,97517.08
2022-12-11T01:42:26.329Z,97514.27
2022-12-11T01:45:32.318Z,97513.27
2022-12-11T01:48:09.435Z,97509.00
2022-12-11T01:50:46.084Z,97506.38
2022-12-11T01:53:21.810Z,97505.52
2022-12-11T01:55:56.806Z,97507.23
2022-12-11T01:58:33.380Z,97506.13
2022-12-11T02:01:05.922Z,97506.78
2022-12-11T02:03:37.640Z,97507.36
2022-12-11T02:06:37.675Z,97505.58
2022-12-11T02:09:17.006Z,97511.29
2022-12-11T02:12:02.582Z,97507.94
2022-12-11T02:14:41.512Z,97507.45
2022-12-11T02:17:18.358Z,97512.11
2022-12-11T02:20:04.057Z,97513.41
2022-12-11T02:22:55.455Z,97515.86
2022-12-11T02:25:33.143Z,97509.64
2022-12-11T02:28:18.496Z,97512.10
2022-12-11T02:30:57.020Z,97513.77
2022-12-11T02:33:35.124Z,97510.77
2022-12-11T02:36:10.549Z,97512.41
2022-12-11T02:38:46.848Z,97515.92
2022-12-11T02:41:19.618Z,97515.79
2022-12-11T02:43:52.940Z,97510.70
2022-12-11T02:46:25.874Z,97511.42
2022-12-11T02:48:59.121Z,97506.18
2022-12-11T02:51:33.561Z,97502.13
2022-12-11T02:54:08.855Z,97496.77
2022-12-11T02:56:44.425Z,97486.98
2022-12-11T02:59:21.403Z,97489.42
2022-12-11T03:01:53.461Z,97488.89
2022-12-11T03:04:26.907Z,97486.22
2022-12-11T03:07:12.891Z,97486.73
2022-12-11T03:09:47.054Z,97486.17
2022-12-11T03:12:25.624Z,97489.51
2022-12-11T03:14:59.200Z,97478.68
2022-12-11T03:17:33.786Z,97476.39
2022-12-11T03:20:18.674Z,97478.13
2022-12-11T03:22:55.281Z,97483.92
2022-12-11T03:25:33.664Z,97489.41
2022-12-11T03:28:14.466Z,97484.44
2022-12-11T03:30:47.515Z,97484.88
2022-12-11T03:33:26.843Z,97489.40
2022-12-11T03:36:02.231Z,97498.48
2022-12-11T03:38:38.213Z,97496.38
2022-12-11T03:41:13.183Z,97494.14
2022-12-11T03:43:48.298Z,97490.72
2022-12-11T03:46:23.104Z,97488.26
2022-12-11T03:48:57.640Z,97483.14
2022-12-11T03:51:30.015Z,97475.15
2022-12-11T03:54:02.176Z,97471.11
2022-12-11T03:56:36.932Z,97472.02
2022-12-11T03:59:09.903Z,97464.58
2022-12-11T04:01:43.504Z,97462.79
2022-12-11T04:04:13.899Z,97459.20
2022-12-11T04:06:45.580Z,97462.64
2022-12-11T04:09:17.544Z,97459.21
2022-12-11T04:11:51.549Z,97461.39
2022-12-11T04:14:40.704Z,97461.39
2022-12-11T04:17:12.744Z,97458.58
2022-12-11T04:20:02.113Z,97455.87
2022-12-11T04:22:51.672Z,97452.70
2022-12-11T04:25:23.489Z,97456.94
2022-12-11T04:27:55.033Z,97455.34
2022-12-11T04:30:33.753Z,97453.29
2022-12-11T04:33:06.787Z,97451.97
2022-12-11T04:35:39.531Z,97449.56
2022-12-11T04:38:11.314Z,97449.42
2022-12-11T04:40:42.970Z,97451.16
2022-12-11T04:43:14.589Z,97451.88
2022-12-11T04:45:46.218Z,97455.24
2022-12-11T04:48:17.996Z,97452.70
2022-12-11T04:50:49.566Z,97445.17
2022-12-11T04:53:21.112Z,97445.01
2022-12-11T04:55:52.809Z,97443.90
2022-12-11T04:58:24.852Z,97441.13
2022-12-11T05:00:56.548Z,97438.77
2022-12-11T05:03:28.144Z,97442.13
2022-12-11T05:05:59.776Z,97437.44
2022-12-11T05:08:31.423Z,97440.00
2022-12-11T05:11:09.691Z,97442.54
2022-12-11T05:13:41.922Z,97444.24
2022-12-11T05:16:16.527Z,97442.55
2022-12-11T05:18:48.548Z,97440.70
2022-12-11T05:21:23.085Z,97440.43
2022-12-11T05:23:54.631Z,97438.52
2022-12-11T05:26:26.452Z,97437.42
2022-12-11T05:28:58.620Z,97434.85
2022-12-11T05:31:30.542Z,97431.02
2022-12-11T05:34:04.469Z,97424.67
2022-12-11T05:36:38.139Z,97423.61
2022-12-11T05:39:14.480Z,97425.86
2022-12-11T05:41:46.157Z,97423.48
2022-12-11T05:44:19.117Z,97421.09
2022-12-11T05:47:00.228Z,97417.59
2022-12-11T05:49:31.992Z,97421.73
2022-12-11T05:52:03.634Z,97422.73
2022-12-11T05:54:35.187Z,97420.41
2022-12-11T05:57:06.932Z,97423.77
2022-12-11T05:59:38.452Z,97424.02
2022-12-11T06:02:11.952Z,97423.36
2022-12-11T06:04:42.089Z,97427.83
2022-12-11T06:07:16.221Z,97425.90
2022-12-11T06:09:47.786Z,97423.44
2022-12-11T06:12:19.479Z,97422.94
2022-12-11T06:14:51.033Z,97421.86
2022-12-11T06:17:22.519Z,97424.15
2022-12-11T06:19:56.791Z,97423.95
2022-12-11T06:22:33.051Z,97423.27
2022-12-11T06:25:05.204Z,97427.59
2022-12-11T06:27:39.387Z,97431.06
2022-12-11T06:30:14.516Z,97431.80
2022-12-11T06:32:46.190Z,97429.18
2022-12-11T06:35:19.847Z,97435.82
2022-12-11T06:37:51.555Z,97438.63
2022-12-11T06:40:24.755Z,97439.42
2022-12-11T06:42:56.553Z,97441.25
2022-12-11T06:45:28.211Z,97448.11
2022-12-11T06:48:00.669Z,97447.01
2022-12-11T06:50:34.671Z,97446.98
2022-12-11T06:53:07.511Z,97442.96
2022-12-11T06:55:42.073Z,97445.69
2022-12-11T06:58:13.649Z,97446.95
2022-12-11T07:00:45.491Z,97447.60
2022-12-11T07:03:17.265Z,97443.77
2022-12-11T07:05:48.851Z,97444.61
2022-12-11T07:08:20.458Z,97447.98
2022-12-11T07:10:55.638Z,97444.56
2022-12-11T07:13:27.331Z,97445.91
2022-12-11T07:16:04.424Z,97447.77
2022-12-11T07:18:39.149Z,97445.42
2022-12-11T07:21:12.533Z,97439.67
2022-12-11T07:23:44.650Z,97441.40
2022-12-11T07:26:19.669Z,97436.49
2022-12-11T07:28:49.911Z,97439.44
2022-12-11T07:31:24.842Z,97439.19
2022-12-11T07:33:58.303Z,97450.56
2022-12-11T07:36:30.624Z,97452.13
2022-12-11T07:39:03.106Z,97456.73
2022-12-11T07:41:34.842Z,97457.20
2022-12-11T07:44:06.860Z,97463.30
2022-12-11T07:46:38.716Z,97470.84
2022-12-11T07:49:10.242Z,97466.17
2022-12-11T07:51:43.359Z,97465.10
2022-12-11T07:54:17.524Z,97466.08
2022-12-11T07:56:53.741Z,97469.77
2022-12-11T07:59:25.871Z,97473.58
2022-12-11T08:01:57.382Z,97475.08
2022-12-11T08:04:28.997Z,97478.16
2022-12-11T08:07:01.079Z,97478.30
2022-12-11T08:09:32.739Z,97480.66
2022-12-11T08:12:04.538Z,97475.36
2022-12-11T08:14:36.401Z,97477.55
2022-12-11T08:17:07.980Z,97474.75
2022-12-11T08:19:39.581Z,97475.00
2022-12-11T08:22:11.600Z,97471.92
2022-12-11T08:24:43.178Z,97475.36
2022-12-11T08:27:14.761Z,97476.73
2022-12-11T08:29:47.802Z,97470.42
2022-12-11T08:32:19.773Z,97471.14
2022-12-11T08:34:53.624Z,97473.27
2022-12-11T08:37:25.335Z,97482.30
2022-12-11T08:39:56.910Z,97476.20
2022-12-11T08:42:28.521Z,97475.20
2022-12-11T08:45:00.025Z,97477.13
2022-12-11T08:47:33.706Z,97478.77
2022-12-11T08:50:05.985Z,97477.07
2022-12-11T08:52:38.336Z,97477.55
2022-12-11T08:55:11.554Z,97481.29
2022-12-11T08:57:43.532Z,97482.88
2022-12-11T09:00:17.129Z,97478.38
2022-12-11T09:02:47.103Z,97478.55
2022-12-11T09:05:19.089Z,97474.33
2022-12-11T09:07:50.664Z,97472.80
2022-12-11T09:10:22.639Z,97472.95
2022-12-11T09:12:54.312Z,97469.61
2022-12-11T09:15:25.995Z,97465.36
2022-12-11T09:17:57.669Z,97464.90
2022-12-11T09:20:29.242Z,97460.41
2022-12-11T09:23:00.846Z,97459.90
2022-12-11T09:25:32.729Z,97457.46
2022-12-11T09:28:04.297Z,97462.70
2022-12-11T09:30:35.925Z,97455.80
2022-12-11T09:33:07.735Z,97459.26
2022-12-11T09:35:39.475Z,97451.15
2022-12-11T09:38:11.575Z,97450.32
2022-12-11T09:40:46.133Z,97450.11
2022-12-11T09:43:32.322Z,97453.59
2022-12-11T09:46:07.114Z,97453.69
2022-12-11T09:48:40.871Z,97453.61
2022-12-11T09:51:20.294Z,97454.75
2022-12-11T09:53:52.706Z,97452.50
2022-12-11T09:56:29.051Z,97453.36
2022-12-11T09:59:09.716Z,97447.98
2022-12-11T10:01:51.134Z,97443.70
2022-12-11T10:04:40.649Z,97446.42
2022-12-11T10:07:17.877Z,97443.79
2022-12-11T10:09:57.796Z,97443.30
2022-12-11T10:12:40.073Z,97444.66
2022-12-11T10:15:34.834Z,97445.05
2022-12-11T10:18:18.309Z,97448.34
2022-12-11T10:20:54.211Z,97448.48
2022-12-11T10:23:30.377Z,97442.10
2022-12-11T10:26:07.894Z,97442.80
2022-12-11T10:28:39.489Z,97441.36
2022-12-11T10:31:19.100Z,97443.39
2022-12-11T10:34:01.047Z,97439.13
2022-12-11T10:36:36.518Z,97444.30
2022-12-11T10:39:15.923Z,97442.44
2022-12-11T10:41:50.067Z,97442.27
2022-12-11T10:44:23.486Z,97440.12
2022-12-11T10:47:08.383Z,97436.83
2022-12-11T10:49:44.272Z,97427.93
2022-12-11T10:52:24.345Z,97425.81
2022-12-11T10:55:03.323Z,97426.75
2022-12-11T10:57:40.209Z,97423.49
2022-12-11T11:00:44.804Z,97418.80
2022-12-11T11:03:28.611Z,97414.33
2022-12-11T11:06:08.721Z,97410.45
2022-12-11T11:08:44.148Z,97409.90
2022-12-11T11:11:29.168Z,97406.48
2022-12-11T11:14:16.953Z,97401.52
2022-12-11T11:16:50.681Z,97394.98
2022-12-11T11:19:25.488Z,97392.52
2022-12-11T11:22:00.480Z,97392.86
2022-12-11T11:24:36.548Z,97389.98
2022-12-11T11:27:26.221Z,97382.04
2022-12-11T11:30:01.147Z,97379.02
2022-12-11T11:32:35.770Z,97377.66
2022-12-11T11:35:21.466Z,97375.42
2022-12-11T11:38:03.353Z,97382.89
2022-12-11T11:40:43.232Z,97382.06
2022-12-11T11:43:22.755Z,97382.80
2022-12-11T11:46:00.709Z,97386.31
2022-12-11T11:48:41.403Z,97388.64
2022-12-11T11:51:22.664Z,97392.73
2022-12-11T11:53:56.485Z,97396.86
2022-12-11T11:56:31.493Z,97392.95
2022-12-11T11:59:13.437Z,97393.90
2022-12-11T12:01:46.029Z,97390.36
2022-12-11T12:04:17.724Z,97388.56
2022-12-11T12:07:08.039Z,97389.91
2022-12-11T12:09:54.049Z,97390.23
2022-12-11T12:12:35.396Z,97387.77
2022-12-11T12:15:21.915Z,97393.77
2022-12-11T12:17:57.456Z,97391.89
2022-12-11T12:20:37.853Z,97393.69
2022-12-11T12:23:25.053Z,97391.96
2022-12-11T12:26:02.967Z,97393.45
2022-12-11T12:28:46.157Z,97391.08
2022-12-11T12:31:33.445Z,97386.17
2022-12-11T12:34:17.505Z,97384.29
2022-12-11T12:36:59.417Z,97376.45
2022-12-11T12:39:41.653Z,97383.98
2022-12-11T12:42:23.338Z,97372.41
2022-12-11T12:45:05.056Z,97375.94
2022-12-11T12:47:38.005Z,97383.95
2022-12-11T12:50:16.032Z,97384.77
2022-12-11T12:52:49.902Z,97390.00
2022-12-11T12:55:25.924Z,97393.50
2022-12-11T12:58:01.335Z,97397.60
2022-12-11T13:00:36.662Z,97399.52
2022-12-11T13:03:17.285Z,97400.20
2022-12-11T13:05:59.142Z,97402.23
2022-12-11T13:08:32.648Z,97400.09
2022-12-11T13:11:07.528Z,97401.45
2022-12-11T13:13:41.696Z,97403.49
2022-12-11T13:16:29.178Z,97404.17
2022-12-11T13:19:00.940Z,97411.92
2022-12-11T13:21:35.187Z,97410.46
2022-12-11T13:24:28.171Z,97411.34
2022-12-11T13:27:11.467Z,97418.78
2022-12-11T13:29:43.854Z,97421.98
2022-12-11T13:32:25.738Z,97425.31
2022-12-11T13:35:00.184Z,97424.90
2022-12-11T13:37:35.292Z,97429.48
2022-12-11T13:40:16.013Z,97424.34
2022-12-11T13:42:55.588Z,97418.75
2022-12-11T13:45:30.898Z,97414.11
2022-12-11T13:48:02.829Z,97421.73
2022-12-11T13:50:37.802Z,97424.92
2022-12-11T13:53:25.955Z,97425.83
2022-12-11T13:56:01.637Z,97428.02
2022-12-11T13:58:39.225Z,97423.41
2022-12-11T14:01:13.717Z,97423.77
2022-12-11T14:03:54.574Z,97429.70
2022-12-11T14:06:28.448Z,97434.55
2022-12-11T14:09:03.040Z,97440.23
2022-12-11T14:11:39.606Z,97444.05
2022-12-11T14:14:21.219Z,97442.80
2022-12-11T14:16:54.277Z,97439.38
2022-12-11T14:19:26.487Z,97441.48
2022-12-11T14:22:05.450Z,97446.67
2022-12-11T14:24:36.979Z,97448.42
2022-12-11T14:27:17.771Z,97452.27
2022-12-11T14:29:50.285Z,97454.03
2022-12-11T14:32:31.074Z,97453.21
2022-12-11T14:35:05.646Z,97452.33
2022-12-11T14:37:38.352Z,97450.42
2022-12-11T14:40:17.090Z,97449.70
2022-12-11T14:42:59.899Z,97446.19
2022-12-11T14:45:37.955Z,97445.48
2022-12-11T14:48:14.506Z,97443.89
2022-12-11T14:50:50.309Z,97434.16
2022-12-11T14:53:26.441Z,97442.52
2022-12-11T14:56:06.784Z,97442.40
2022-12-11T14:58:46.674Z,97440.60
2022-12-11T15:01:27.528Z,97441.42
2022-12-11T15:04:20.901Z,97442.46
2022-12-11T15:06:53.678Z,97441.13
2022-12-11T15:09:29.500Z,97441.83
2022-12-11T15:12:10.749Z,97438.42
2022-12-11T15:14:50.186Z,97436.73
2022-12-11T15:17:22.766Z,97437.80
2022-12-11T15:19:57.256Z,97435.60
2022-12-11T15:22:32.235Z,97440.81
2022-12-11T15:25:05.933Z,97452.20
2022-12-11T15:27:39.706Z,97457.52
2022-12-11T15:30:31.825Z,97460.30
2022-12-11T15:33:22.161Z,97456.63
2022-12-11T15:36:00.378Z,97457.48
2022-12-11T15:38:35.056Z,97463.89
2022-12-11T15:41:07.465Z,97469.70
2022-12-11T15:43:40.277Z,97470.45
2022-12-11T15:46:11.999Z,97469.20
2022-12-11T15:48:43.831Z,97467.60
2022-12-11T15:51:15.416Z,97466.43
2022-12-11T15:53:46.905Z,97471.88
2022-12-11T15:56:19.199Z,97472.50
2022-12-11T15:58:51.698Z,97476.01
2022-12-11T16:01:23.268Z,97481.37
2022-12-11T16:03:54.841Z,97480.94
2022-12-11T16:06:26.472Z,97477.85
2022-12-11T16:08:58.014Z,97476.77
2022-12-11T16:11:29.592Z,97484.05
2022-12-11T16:14:04.328Z,97487.92
2022-12-11T16:16:36.087Z,97487.50
2022-12-11T16:19:07.682Z,97486.05
2022-12-11T16:21:39.170Z,97488.41
2022-12-11T16:24:11.179Z,97489.52
2022-12-11T16:26:42.704Z,97487.97
2022-12-11T16:29:14.256Z,97490.65
2022-12-11T16:31:45.901Z,97487.27
2022-12-11T16:34:17.453Z,97484.88
2022-12-11T16:36:49.056Z,97489.61
2022-12-11T16:39:20.538Z,97482.95
2022-12-11T16:41:52.063Z,97487.08
2022-12-11T16:44:26.022Z,97493.59
2022-12-11T16:46:58.896Z,97500.86
2022-12-11T16:49:32.169Z,97504.73
2022-12-11T16:52:03.732Z,97499.48
2022-12-11T16:54:35.217Z,97497.68
2022-12-11T16:57:07.019Z,97496.23
2022-12-11T16:59:38.829Z,97494.75
2022-12-11T17:02:10.913Z,97499.51
2022-12-11T17:04:43.348Z,97492.34
2022-12-11T17:07:15.734Z,97500.14
2022-12-11T17:09:47.277Z,97497.07
2022-12-11T17:12:18.965Z,97498.29
2022-12-11T17:14:50.612Z,97502.75
2022-12-11T17:17:22.533Z,97504.63
2022-12-11T17:19:54.273Z,97503.98
2022-12-11T17:22:26.283Z,97504.42
2022-12-11T17:24:57.815Z,97507.75
2022-12-11T17:27:29.517Z,97505.95
2022-12-11T17:30:01.043Z,97504.19
2022-12-11T17:32:32.601Z,97500.33
2022-12-11T17:35:04.278Z,97503.18
2022-12-11T17:37:35.935Z,97498.21
2022-12-11T17:40:09.638Z,97499.16
2022-12-11T17:42:43.099Z,97495.53
2022-12-11T17:45:13.589Z,97496.50
2022-12-11T17:47:45.613Z,97496.02
2022-12-11T17:50:17.576Z,97499.67
2022-12-11T17:52:49.223Z,97497.84
2022-12-11T17:55:21.077Z,97505.83
2022-12-11T17:57:52.857Z,97506.02
2022-12-11T18:00:25.403Z,97505.61
2022-12-11T18:02:59.035Z,97509.27
2022-12-11T18:05:31.049Z,97510.54
2022-12-11T18:08:03.719Z,97515.27
2022-12-11T18:10:38.393Z,97515.49
2022-12-11T18:13:10.221Z,97517.73
2022-12-11T18:15:42.594Z,97516.11
2022-12-11T18:18:14.423Z,97515.56
2022-12-11T18:20:49.062Z,97513.43
2022-12-11T18:23:20.877Z,97513.23
2022-12-11T18:25:52.737Z,97510.20
2022-12-11T18:28:24.458Z,97510.16
2022-12-11T18:30:56.057Z,97509.49
2022-12-11T18:33:27.974Z,97506.41
2022-12-11T18:35:59.524Z,97507.38
2022-12-11T18:38:31.355Z,97508.67
2022-12-11T18:41:05.018Z,97507.69
2022-12-11T18:43:37.127Z,97503.46
2022-12-11T18:46:10.253Z,97504.98
2022-12-11T18:48:42.235Z,97504.63
2022-12-11T18:51:17.315Z,97509.14
2022-12-11T18:53:48.927Z,97507.52
2022-12-11T18:56:22.201Z,97508.66
2022-12-11T18:58:56.948Z,97506.38
2022-12-11T19:01:30.082Z,97508.59
2022-12-11T19:04:06.659Z,97512.09
2022-12-11T19:06:42.129Z,97508.56
2022-12-11T19:09:15.521Z,97509.27
2022-12-11T19:11:47.592Z,97506.45
2022-12-11T19:14:19.271Z,97507.66
2022-12-11T19:16:51.074Z,97504.51
2022-12-11T19:19:23.902Z,97503.34
2022-12-11T19:21:55.664Z,97507.40
2022-12-11T19:24:27.526Z,97510.02
2022-12-11T19:26:59.286Z,97505.23
2022-12-11T19:29:33.341Z,97500.94
2022-12-11T19:32:06.011Z,97509.30
2022-12-11T19:34:38.472Z,97509.39
2022-12-11T19:37:10.032Z,97506.14
2022-12-11T19:39:42.415Z,97504.14
2022-12-11T19:42:14.158Z,97504.05
2022-12-11T19:44:46.049Z,97504.73
2022-12-11T19:47:17.731Z,97507.88
2022-12-11T19:49:51.343Z,97504.41
2022-12-11T19:52:22.869Z,97504.06
2022-12-11T19:54:54.497Z,97504.69
2022-12-11T19:57:26.207Z,97503.58
2022-12-11T19:59:57.849Z,97504.50
2022-12-11T20:02:29.641Z,97502.29
2022-12-11T20:05:01.418Z,97497.95
2022-12-11T20:07:33.012Z,97504.90
2022-12-11T20:10:05.092Z,97502.70
2022-12-11T20:12:36.736Z,97503.14
2022-12-11T20:15:10.109Z,97501.66
2022-12-11T20:17:44.723Z,97500.98
2022-12-11T20:20:16.415Z,97505.82
2022-12-11T20:22:48.071Z,97502.96
2022-12-11T20:25:20.031Z,97502.83
2022-12-11T20:27:52.095Z,97506.71
2022-12-11T20:30:24.698Z,97511.43
2022-12-11T20:32:56.221Z,97512.12
2022-12-11T20:35:27.860Z,97512.41
2022-12-11T20:37:59.392Z,97511.01
2022-12-11T20:40:32.129Z,97514.77
2022-12-11T20:43:03.699Z,97509.55
2022-12-11T20:45:35.391Z,97504.02
2022-12-11T20:48:07.752Z,97506.01
2022-12-11T20:50:39.320Z,97504.25
2022-12-11T20:53:11.092Z,97504.50
2022-12-11T20:55:44.145Z,97506.71
2022-12-11T20:58:15.760Z,97508.52
2022-12-11T21:00:48.090Z,97506.41
2022-12-11T21:03:19.754Z,97509.92
2022-12-11T21:05:51.244Z,97510.98
2022-12-11T21:08:22.907Z,97507.16
2022-12-11T21:10:54.565Z,97504.79
2022-12-11T21:13:26.143Z,97503.47
2022-12-11T21:15:57.797Z,97505.72
2022-12-11T21:18:29.459Z,97506.70
2022-12-11T21:21:00.972Z,97502.55
2022-12-11T21:23:32.727Z,97505.45
2022-12-11T21:26:04.679Z,97503.95
2022-12-11T21:28:36.327Z,97506.98
2022-12-11T21:31:10.717Z,97504.16
2022-12-11T21:33:42.490Z,97499.23
2022-12-11T21:36:16.128Z,97500.46
2022-12-11T21:38:48.094Z,97502.90
2022-12-11T21:41:22.160Z,97504.26
2022-12-11T21:45:14.472Z,97506.75
2022-12-11T21:46:46.212Z,97507.60
2022-12-11T21:49:17.784Z,97511.30
2022-12-11T21:51:49.668Z,97511.33
2022-12-11T21:54:21.518Z,97506.84
2022-12-11T21:56:54.195Z,97513.66
2022-12-11T21:59:25.700Z,97516.27
2022-12-11T22:01:57.414Z,97508.80
2022-12-11T22:04:29.025Z,97506.89
2022-12-11T22:07:00.522Z,97501.55
2022-12-11T22:09:32.077Z,97503.23
2022-12-11T22:12:03.604Z,97506.13
2022-12-11T22:14:36.347Z,97507.98
2022-12-11T22:17:07.857Z,97503.38
2022-12-11T22:19:39.393Z,97505.46
2022-12-11T22:22:10.904Z,97504.20
2022-12-11T22:24:42.716Z,97501.21
2022-12-11T22:27:16.817Z,97499.52
2022-12-11T22:29:52.065Z,97499.84
2022-12-11T22:32:23.564Z,97496.83
2022-12-11T22:34:56.339Z,97499.18
2022-12-11T22:37:29.117Z,97501.71
2022-12-11T22:40:01.147Z,97495.54
2022-12-11T22:42:33.085Z,97499.28
2022-12-11T22:45:05.436Z,97495.03
2022-12-11T22:47:37.778Z,97496.80
2022-12-11T22:50:11.711Z,97500.20
2022-12-11T22:52:44.768Z,97503.27
2022-12-11T22:55:16.845Z,97498.56
2022-12-11T22:57:48.391Z,97501.73
2022-12-11T23:00:21.015Z,97498.99
2022-12-11T23:02:52.790Z,97501.20
2022-12-11T23:05:24.494Z,97488.98
2022-12-11T23:07:56.095Z,97491.52
2022-12-11T23:10:28.050Z,97492.02
2022-12-11T23:12:59.548Z,97489.50
2022-12-11T23:15:31.272Z,97483.71
2022-12-11T23:18:03.179Z,97483.53
2022-12-11T23:20:34.723Z,97482.13
2022-12-11T23:23:06.263Z,97483.10
2022-12-11T23:25:37.814Z,97481.29
2022-12-11T23:28:09.557Z,97484.90
2022-12-11T23:30:59.633Z,97481.93
2022-12-11T23:33:31.373Z,97483.27
2022-12-11T23:36:03.196Z,97485.66
2022-12-11T23:38:35.712Z,97486.42
2022-12-11T23:41:08.846Z,97483.13
2022-12-11T23:43:40.992Z,97482.41
2022-12-11T23:46:14.985Z,97480.95
2022-12-11T23:48:47.684Z,97486.94
2022-12-11T23:51:21.431Z,97486.16
2022-12-11T23:53:53.379Z,97489.16
2022-12-11T23:56:27.681Z,97488.29
2022-12-11T23:58:59.432Z,97482.44
